createdAt,value
2018-02-19T00:00:43.740Z,-1.84
2018-02-19T00:03:11.215Z,-1.83
2018-02-19T00:05:38.705Z,-1.89
2018-02-19T00:08:06.182Z,-1.89
2018-02-19T00:10:33.688Z,-1.91
2018-02-19T00:13:01.165Z,-1.86
2018-02-19T00:15:28.646Z,-1.84
2018-02-19T00:17:56.118Z,-1.85
2018-02-19T00:20:23.616Z,-1.80
2018-02-19T00:22:51.092Z,-1.83
2018-02-19T00:25:18.583Z,-1.78
2018-02-19T00:27:46.056Z,-1.77
2018-02-19T00:30:13.541Z,-1.74
2018-02-19T00:32:41.067Z,-1.69
2018-02-19T00:35:08.530Z,-1.65
2018-02-19T00:37:36.007Z,-1.53
2018-02-19T00:40:03.498Z,-1.51
2018-02-19T00:42:30.968Z,-1.39
2018-02-19T00:44:58.455Z,-1.39
2018-02-19T00:47:25.928Z,-1.37
2018-02-19T00:49:53.429Z,-1.43
2018-02-19T00:52:20.898Z,-1.48
2018-02-19T00:54:48.369Z,-1.54
2018-02-19T00:57:15.878Z,-1.65
2018-02-19T00:59:43.344Z,-1.61
2018-02-19T01:02:10.834Z,-1.58
2018-02-19T01:04:38.359Z,-1.54
2018-02-19T01:07:05.845Z,-1.52
2018-02-19T01:09:33.318Z,-1.49
2018-02-19T01:12:00.804Z,-1.56
2018-02-19T01:14:29.227Z,-1.57
2018-02-19T01:16:56.724Z,-1.52
2018-02-19T01:19:24.206Z,-1.44
2018-02-19T01:21:51.702Z,-1.44
2018-02-19T01:24:19.180Z,-1.39
2018-02-19T01:26:46.672Z,-1.37
2018-02-19T01:29:14.138Z,-1.35
2018-02-19T01:31:41.658Z,-1.39
2018-02-19T01:34:09.138Z,-1.29
2018-02-19T01:36:36.628Z,-1.32
2018-02-19T01:39:04.102Z,-1.29
2018-02-19T01:41:31.591Z,-1.21
2018-02-19T01:43:59.068Z,-1.08
2018-02-19T01:46:26.556Z,-1.07
2018-02-19T01:48:54.029Z,-1.11
2018-02-19T01:51:21.522Z,-1.13
2018-02-19T01:53:48.992Z,-1.07
2018-02-19T01:56:16.479Z,-1.15
2018-02-19T01:58:43.947Z,-1.09
2018-02-19T02:01:11.434Z,-1.02
2018-02-19T02:03:38.903Z,-0.94
2018-02-19T02:06:06.394Z,-0.98
2018-02-19T02:08:33.879Z,-1.09
2018-02-19T02:11:01.367Z,-1.16
2018-02-19T02:13:28.845Z,-1.23
2018-02-19T02:15:56.336Z,-1.27
2018-02-19T02:18:23.807Z,-1.34
2018-02-19T02:20:51.278Z,-1.39
2018-02-19T02:23:18.776Z,-1.44
2018-02-19T02:25:46.249Z,-1.49
2018-02-19T02:28:13.745Z,-1.56
2018-02-19T02:30:41.224Z,-1.67
2018-02-19T02:33:08.720Z,-1.73
2018-02-19T02:35:36.192Z,-1.84
2018-02-19T02:38:03.683Z,-1.89
2018-02-19T02:40:31.164Z,-1.92
2018-02-19T02:42:58.659Z,-1.97
2018-02-19T02:45:26.133Z,-2.00
2018-02-19T02:47:53.635Z,-1.99
2018-02-19T02:50:21.111Z,-1.99
2018-02-19T02:52:48.595Z,-1.96
2018-02-19T02:55:16.069Z,-1.96
2018-02-19T02:57:43.559Z,-1.98
2018-02-19T03:00:11.033Z,-1.98
2018-02-19T03:02:38.524Z,-1.98
2018-02-19T03:05:05.993Z,-1.98
2018-02-19T03:07:33.484Z,-1.96
2018-02-19T03:10:00.951Z,-1.97
2018-02-19T03:12:28.434Z,-1.98
2018-02-19T03:14:55.904Z,-1.97
2018-02-19T03:17:23.395Z,-1.93
2018-02-19T03:19:50.862Z,-1.94
2018-02-19T03:22:18.359Z,-1.96
2018-02-19T03:24:45.836Z,-1.94
2018-02-19T03:27:13.336Z,-1.92
2018-02-19T03:29:40.805Z,-1.91
2018-02-19T03:32:08.295Z,-1.88
2018-02-19T03:34:35.763Z,-1.80
2018-02-19T03:37:03.251Z,-1.80
2018-02-19T03:39:30.734Z,-1.71
2018-02-19T03:41:58.228Z,-1.70
2018-02-19T03:44:25.702Z,-1.68
2018-02-19T03:46:53.175Z,-1.61
2018-02-19T03:49:20.672Z,-1.61
2018-02-19T03:51:48.150Z,-1.60
2018-02-19T03:54:15.648Z,-1.57
2018-02-19T03:56:43.134Z,-1.54
2018-02-19T03:59:10.618Z,-1.49
2018-02-19T04:01:38.091Z,-1.41
2018-02-19T04:04:05.574Z,-1.38
2018-02-19T04:06:33.043Z,-1.33
2018-02-19T04:09:00.533Z,-1.31
2018-02-19T04:11:28.002Z,-1.26
2018-02-19T04:13:55.491Z,-1.24
2018-02-19T04:16:22.954Z,-1.24
2018-02-19T04:18:50.444Z,-1.32
2018-02-19T04:21:18.569Z,-1.20
2018-02-19T04:23:46.100Z,-1.16
2018-02-19T04:26:13.563Z,-1.15
2018-02-19T04:28:41.058Z,-1.14
2018-02-19T04:31:08.547Z,-1.15
2018-02-19T04:33:36.044Z,-1.13
2018-02-19T04:36:03.563Z,-1.09
2018-02-19T04:38:31.051Z,-1.10
2018-02-19T04:40:58.514Z,-1.08
2018-02-19T04:43:26.004Z,-1.10
2018-02-19T04:46:01.995Z,-1.08
2018-02-19T04:48:36.679Z,-1.09
2018-02-19T04:51:04.148Z,-1.05
2018-02-19T04:53:31.690Z,-1.02
2018-02-19T04:55:59.160Z,-0.94
2018-02-19T04:58:26.653Z,-1.01
2018-02-19T05:00:54.133Z,-1.01
2018-02-19T05:03:21.632Z,-1.03
2018-02-19T05:05:49.102Z,-1.04
2018-02-19T05:08:16.595Z,-0.94
2018-02-19T05:10:44.059Z,-0.82
2018-02-19T05:13:11.548Z,-0.84
2018-02-19T05:15:39.024Z,-0.91
2018-02-19T05:18:06.516Z,-0.94
2018-02-19T05:20:33.992Z,-0.96
2018-02-19T05:23:01.499Z,-0.99
2018-02-19T05:25:28.963Z,-1.00
2018-02-19T05:27:56.438Z,-1.00
2018-02-19T05:30:23.939Z,-0.98
2018-02-19T05:32:51.416Z,-0.93
2018-02-19T05:35:18.910Z,-0.87
2018-02-19T05:37:46.374Z,-0.66
2018-02-19T05:40:13.866Z,-0.69
2018-02-19T05:42:41.343Z,-0.63
2018-02-19T05:45:08.840Z,-0.68
2018-02-19T05:47:36.365Z,-0.64
2018-02-19T05:50:03.838Z,-0.64
2018-02-19T05:52:31.306Z,-0.62
2018-02-19T05:54:59.251Z,-0.63
2018-02-19T05:57:26.716Z,-0.60
2018-02-19T05:59:54.211Z,-0.59
2018-02-19T06:02:21.685Z,-0.58
2018-02-19T06:04:49.182Z,-0.56
2018-02-19T06:07:16.676Z,-0.58
2018-02-19T06:09:44.174Z,-0.54
2018-02-19T06:12:11.652Z,-0.53
2018-02-19T06:14:39.143Z,-0.52
2018-02-19T06:17:06.621Z,-0.54
2018-02-19T06:19:34.122Z,-0.54
2018-02-19T06:22:01.599Z,-0.49
2018-02-19T06:24:29.092Z,-0.39
2018-02-19T06:26:56.572Z,-0.35
2018-02-19T06:29:24.662Z,-0.26
2018-02-19T06:31:52.143Z,-0.36
2018-02-19T06:34:19.652Z,-0.44
2018-02-19T06:36:47.112Z,-0.46
2018-02-19T06:39:14.608Z,-0.46
2018-02-19T06:41:42.092Z,-0.46
2018-02-19T06:44:10.363Z,-0.45
2018-02-19T06:46:38.775Z,-0.48
2018-02-19T06:49:06.239Z,-0.45
2018-02-19T06:51:33.736Z,-0.42
2018-02-19T06:54:01.215Z,-0.41
2018-02-19T06:56:28.709Z,-0.35
2018-02-19T06:58:56.200Z,-0.25
2018-02-19T07:01:23.703Z,-0.24
2018-02-19T07:03:51.180Z,-0.26
2018-02-19T07:06:18.755Z,-0.25
2018-02-19T07:08:46.217Z,-0.22
2018-02-19T07:11:13.711Z,-0.06
2018-02-19T07:13:41.188Z,-0.17
2018-02-19T07:16:08.680Z,-0.14
2018-02-19T07:18:36.146Z,-0.17
2018-02-19T07:21:03.676Z,-0.22
2018-02-19T07:23:31.395Z,-0.10
2018-02-19T07:25:58.900Z,-0.06
2018-02-19T07:28:26.371Z,0.02
2018-02-19T07:30:53.852Z,0.00
2018-02-19T07:33:21.331Z,-0.06
2018-02-19T07:35:48.832Z,0.00
2018-02-19T07:38:16.303Z,-0.08
2018-02-19T07:40:43.812Z,-0.03
2018-02-19T07:43:11.284Z,0.10
2018-02-19T07:45:38.771Z,0.23
2018-02-19T07:48:07.172Z,0.35
2018-02-19T07:50:34.693Z,0.46
2018-02-19T07:53:12.100Z,0.57
2018-02-19T07:55:39.600Z,0.72
2018-02-19T07:58:07.079Z,0.85
2018-02-19T08:00:34.567Z,1.01
2018-02-19T08:03:02.027Z,1.07
2018-02-19T08:05:30.353Z,1.06
2018-02-19T08:07:57.824Z,0.96
2018-02-19T08:10:25.307Z,1.09
2018-02-19T08:12:52.776Z,1.05
2018-02-19T08:15:20.268Z,1.08
2018-02-19T08:17:47.744Z,1.27
2018-02-19T08:20:15.239Z,1.55
2018-02-19T08:22:42.720Z,1.76
2018-02-19T08:25:10.179Z,1.82
2018-02-19T08:27:37.668Z,1.90
2018-02-19T08:30:05.151Z,1.92
2018-02-19T08:32:32.651Z,1.91
2018-02-19T08:35:00.148Z,2.00
2018-02-19T08:37:27.647Z,1.95
2018-02-19T08:40:01.076Z,1.95
2018-02-19T08:42:28.567Z,2.08
2018-02-19T08:44:56.036Z,2.24
2018-02-19T08:47:23.519Z,2.20
2018-02-19T08:49:51.009Z,2.28
2018-02-19T08:52:18.497Z,2.37
2018-02-19T08:54:46.057Z,2.52
2018-02-19T08:57:13.599Z,2.56
2018-02-19T08:59:41.099Z,2.65
2018-02-19T09:02:08.581Z,2.17
2018-02-19T09:04:36.047Z,2.05
2018-02-19T09:07:03.531Z,2.50
2018-02-19T09:09:30.998Z,2.77
2018-02-19T09:11:58.479Z,2.78
2018-02-19T09:14:25.955Z,2.44
2018-02-19T09:16:54.167Z,2.65
2018-02-19T09:19:21.631Z,2.55
2018-02-19T09:21:49.119Z,1.86
2018-02-19T09:24:17.515Z,2.45
2018-02-19T09:26:45.004Z,2.63
2018-02-19T09:29:12.483Z,1.92
2018-02-19T09:31:39.973Z,2.25
2018-02-19T09:34:07.469Z,2.47
2018-02-19T09:36:34.961Z,2.63
2018-02-19T09:39:02.423Z,2.80
2018-02-19T09:41:29.918Z,3.05
2018-02-19T09:43:57.387Z,2.73
2018-02-19T09:46:24.879Z,2.45
2018-02-19T09:48:52.354Z,3.09
2018-02-19T09:51:19.815Z,3.15
2018-02-19T09:53:47.294Z,3.39
2018-02-19T09:56:14.778Z,3.72
2018-02-19T09:58:42.258Z,4.03
2018-02-19T10:01:09.723Z,4.19
2018-02-19T10:03:37.207Z,4.34
2018-02-19T10:06:04.682Z,3.92
2018-02-19T10:08:32.203Z,3.88
2018-02-19T10:10:59.673Z,4.12
2018-02-19T10:13:27.162Z,3.62
2018-02-19T10:15:54.656Z,4.01
2018-02-19T10:18:22.143Z,4.48
2018-02-19T10:20:49.611Z,4.68
2018-02-19T10:23:17.103Z,4.46
2018-02-19T10:25:44.569Z,4.60
2018-02-19T10:28:13.559Z,4.87
2018-02-19T10:30:43.008Z,4.78
2018-02-19T10:33:16.599Z,4.76
2018-02-19T10:35:44.068Z,3.89
2018-02-19T10:38:11.558Z,4.12
2018-02-19T10:40:39.032Z,3.76
2018-02-19T10:43:06.524Z,4.40
2018-02-19T10:45:33.993Z,4.70
2018-02-19T10:48:01.475Z,4.88
2018-02-19T10:50:28.949Z,4.50
2018-02-19T10:52:56.443Z,4.94
2018-02-19T10:55:23.922Z,5.04
2018-02-19T10:57:51.402Z,5.29
2018-02-19T11:00:24.548Z,5.71
2018-02-19T11:02:52.069Z,5.91
2018-02-19T11:05:19.557Z,5.84
2018-02-19T11:07:57.032Z,6.01
2018-02-19T11:10:24.503Z,5.38
2018-02-19T11:12:51.983Z,5.86
2018-02-19T11:15:19.459Z,6.23
2018-02-19T11:17:46.960Z,6.34
2018-02-19T11:20:14.479Z,6.20
2018-02-19T11:22:41.967Z,6.61
2018-02-19T11:25:09.430Z,6.59
2018-02-19T11:27:36.928Z,6.74
2018-02-19T11:30:04.392Z,5.79
2018-02-19T11:32:31.885Z,6.16
2018-02-19T11:34:59.377Z,6.27
2018-02-19T11:37:26.851Z,5.50
2018-02-19T11:39:54.331Z,5.65
2018-02-19T11:42:21.801Z,6.03
2018-02-19T11:44:49.304Z,6.15
2018-02-19T11:47:16.772Z,6.27
2018-02-19T11:49:44.264Z,6.59
2018-02-19T11:52:11.731Z,6.23
2018-02-19T11:54:42.339Z,6.46
2018-02-19T11:57:09.812Z,5.49
2018-02-19T11:59:37.963Z,5.95
2018-02-19T12:02:05.431Z,6.31
2018-02-19T12:04:32.922Z,6.54
2018-02-19T12:07:00.400Z,6.82
2018-02-19T12:09:27.876Z,7.01
2018-02-19T12:11:55.464Z,6.00
2018-02-19T12:14:23.815Z,6.68
2018-02-19T12:16:51.280Z,7.06
2018-02-19T12:19:18.763Z,7.30
2018-02-19T12:21:46.239Z,7.20
2018-02-19T12:24:16.760Z,7.24
2018-02-19T12:26:44.230Z,7.25
2018-02-19T12:29:11.733Z,7.12
2018-02-19T12:31:39.207Z,6.94
2018-02-19T12:34:06.701Z,7.15
2018-02-19T12:36:34.175Z,7.50
2018-02-19T12:39:01.655Z,7.80
2018-02-19T12:41:29.127Z,7.74
2018-02-19T12:43:56.618Z,7.82
2018-02-19T12:46:24.083Z,7.14
2018-02-19T12:48:51.579Z,7.29
2018-02-19T12:51:19.055Z,7.49
2018-02-19T12:53:46.554Z,7.79
2018-02-19T12:56:14.023Z,8.12
2018-02-19T12:58:41.516Z,7.90
2018-02-19T13:01:08.984Z,7.04
2018-02-19T13:03:36.461Z,7.55
2018-02-19T13:06:03.947Z,7.62
2018-02-19T13:08:31.403Z,7.32
2018-02-19T13:10:58.883Z,7.37
2018-02-19T13:13:26.347Z,7.70
2018-02-19T13:15:53.831Z,8.01
2018-02-19T13:18:21.356Z,8.12
2018-02-19T13:20:48.847Z,7.59
2018-02-19T13:23:16.314Z,7.08
2018-02-19T13:25:43.804Z,7.78
2018-02-19T13:28:11.263Z,7.89
2018-02-19T13:30:38.752Z,7.96
2018-02-19T13:33:06.224Z,7.91
2018-02-19T13:35:33.716Z,8.01
2018-02-19T13:38:01.179Z,7.31
2018-02-19T13:40:28.664Z,6.99
2018-02-19T13:42:56.131Z,7.02
2018-02-19T13:45:23.623Z,7.04
2018-02-19T13:47:51.087Z,7.13
2018-02-19T13:50:18.576Z,7.36
2018-02-19T13:52:46.867Z,7.50
2018-02-19T13:55:14.354Z,7.48
2018-02-19T13:57:41.831Z,7.58
2018-02-19T14:00:10.036Z,8.11
2018-02-19T14:02:37.503Z,8.37
2018-02-19T14:05:04.991Z,7.91
2018-02-19T14:07:32.465Z,7.90
2018-02-19T14:09:59.959Z,7.81
2018-02-19T14:12:28.368Z,7.61
2018-02-19T14:14:55.850Z,7.74
2018-02-19T14:17:23.319Z,8.06
2018-02-19T14:19:50.811Z,8.03
2018-02-19T14:22:19.273Z,8.55
2018-02-19T14:24:46.746Z,8.57
2018-02-19T14:27:14.234Z,8.51
2018-02-19T14:29:41.703Z,8.19
2018-02-19T14:32:09.211Z,8.41
2018-02-19T14:34:36.673Z,8.27
2018-02-19T14:37:04.159Z,7.86
2018-02-19T14:39:31.635Z,7.68
2018-02-19T14:42:13.443Z,7.58
2018-02-19T14:44:40.916Z,7.54
2018-02-19T14:47:08.415Z,7.49
2018-02-19T14:49:36.736Z,7.51
2018-02-19T14:52:04.236Z,7.42
2018-02-19T14:54:31.703Z,7.17
2018-02-19T14:56:59.184Z,7.34
2018-02-19T14:59:26.664Z,7.19
2018-02-19T15:01:54.156Z,7.27
2018-02-19T15:04:21.636Z,7.26
2018-02-19T15:06:49.123Z,6.96
2018-02-19T15:09:16.599Z,6.98
2018-02-19T15:11:44.080Z,7.20
2018-02-19T15:14:12.465Z,7.09
2018-02-19T15:16:39.951Z,6.70
2018-02-19T15:19:07.411Z,6.71
2018-02-19T15:21:34.895Z,6.74
2018-02-19T15:24:02.360Z,7.00
2018-02-19T15:26:29.847Z,6.96
2018-02-19T15:28:57.323Z,6.64
2018-02-19T15:31:24.799Z,6.67
2018-02-19T15:33:52.284Z,6.43
2018-02-19T15:36:19.774Z,6.29
2018-02-19T15:38:47.252Z,6.27
2018-02-19T15:41:14.743Z,6.14
2018-02-19T15:43:42.214Z,6.03
2018-02-19T15:46:09.695Z,5.91
2018-02-19T15:48:37.171Z,5.82
2018-02-19T15:51:04.662Z,5.82
2018-02-19T15:53:32.128Z,6.02
2018-02-19T15:55:59.620Z,6.02
2018-02-19T15:58:27.099Z,6.05
2018-02-19T16:00:54.564Z,5.88
2018-02-19T16:03:22.051Z,5.74
2018-02-19T16:05:49.510Z,5.57
2018-02-19T16:08:18.022Z,5.41
2018-02-19T16:10:45.536Z,5.46
2018-02-19T16:13:13.052Z,5.40
2018-02-19T16:15:40.793Z,5.29
2018-02-19T16:18:08.318Z,5.35
2018-02-19T16:20:35.837Z,5.36
2018-02-19T16:23:03.418Z,5.30
2018-02-19T16:25:36.512Z,5.30
2018-02-19T16:28:04.139Z,5.19
2018-02-19T16:30:31.725Z,5.06
2018-02-19T16:32:59.287Z,4.96
2018-02-19T16:35:26.829Z,4.91
2018-02-19T16:37:54.393Z,4.95
2018-02-19T16:40:22.022Z,4.85
2018-02-19T16:42:49.592Z,4.76
2018-02-19T16:45:18.235Z,4.79
2018-02-19T16:50:17.836Z,4.73
2018-02-19T16:55:17.696Z,4.68
2018-02-19T16:57:45.241Z,4.62
2018-02-19T17:00:12.765Z,4.59
2018-02-19T17:05:21.544Z,4.47
2018-02-19T17:07:49.462Z,4.37
2018-02-19T17:10:17.477Z,4.31
2018-02-19T17:12:46.269Z,4.31
2018-02-19T17:15:13.877Z,4.28
2018-02-19T17:17:41.397Z,4.27
2018-02-19T17:20:08.972Z,4.22
2018-02-19T17:22:36.481Z,4.18
2018-02-19T17:25:04.104Z,4.19
2018-02-19T17:27:32.680Z,4.10
2018-02-19T17:30:00.281Z,4.03
2018-02-19T17:32:27.872Z,3.99
2018-02-19T17:34:55.492Z,3.97
2018-02-19T17:37:23.062Z,4.01
2018-02-19T17:39:50.632Z,3.99
2018-02-19T17:42:18.189Z,3.94
2018-02-19T17:44:45.733Z,3.94
2018-02-19T17:47:13.339Z,3.89
2018-02-19T17:49:40.883Z,3.81
2018-02-19T17:52:09.549Z,3.73
2018-02-19T17:54:37.107Z,3.65
2018-02-19T17:57:04.851Z,3.57
2018-02-19T17:59:32.736Z,3.49
2018-02-19T18:02:00.277Z,3.45
2018-02-19T18:04:27.920Z,3.47
2018-02-19T18:06:55.420Z,3.46
2018-02-19T18:09:23.058Z,3.45
2018-02-19T18:11:50.640Z,3.46
2018-02-19T18:14:18.211Z,3.48
2018-02-19T18:16:45.996Z,3.40
2018-02-19T18:19:13.601Z,3.41
2018-02-19T18:24:14.347Z,3.45
2018-02-19T18:26:41.899Z,3.44
2018-02-19T18:29:09.468Z,3.43
2018-02-19T18:31:37.012Z,3.42
2018-02-19T18:34:04.563Z,3.41
2018-02-19T18:36:32.128Z,3.43
2018-02-19T18:41:31.561Z,3.48
2018-02-19T18:43:59.980Z,3.49
2018-02-19T18:46:27.652Z,3.51
2018-02-19T18:48:55.273Z,3.52
2018-02-19T18:51:23.276Z,3.48
2018-02-19T18:53:50.849Z,3.44
2018-02-19T18:56:18.377Z,3.45
2018-02-19T18:58:46.001Z,3.51
2018-02-19T19:01:13.550Z,3.46
2018-02-19T19:03:42.047Z,3.52
2018-02-19T19:06:09.551Z,3.53
2018-02-19T19:08:49.251Z,3.55
2018-02-19T19:11:16.719Z,3.49
2018-02-19T19:13:44.219Z,3.53
2018-02-19T19:16:11.700Z,3.52
2018-02-19T19:18:39.188Z,3.54
2018-02-19T19:21:06.676Z,3.50
2018-02-19T19:23:34.185Z,3.50
2018-02-19T19:26:01.679Z,3.42
2018-02-19T19:28:29.166Z,3.34
2018-02-19T19:30:56.683Z,3.33
2018-02-19T19:33:24.200Z,3.39
2018-02-19T19:35:51.702Z,3.40
2018-02-19T19:38:19.176Z,3.39
2018-02-19T19:40:46.827Z,3.31
2018-02-19T19:43:14.312Z,3.32
2018-02-19T19:45:41.827Z,3.29
2018-02-19T19:48:09.312Z,3.29
2018-02-19T19:50:36.804Z,3.24
2018-02-19T19:53:04.294Z,3.23
2018-02-19T19:55:31.835Z,3.23
2018-02-19T19:57:59.329Z,3.19
2018-02-19T20:00:27.113Z,3.19
2018-02-19T20:02:55.054Z,3.17
2018-02-19T20:05:22.578Z,3.17
2018-02-19T20:07:50.047Z,3.15
2018-02-19T20:10:17.591Z,3.13
2018-02-19T20:12:45.076Z,3.11
2018-02-19T20:15:12.596Z,3.10
2018-02-19T20:17:40.072Z,3.10
2018-02-19T20:20:07.573Z,3.06
2018-02-19T20:22:35.043Z,2.98
2018-02-19T20:25:02.545Z,2.94
2018-02-19T20:27:30.147Z,2.96
2018-02-19T20:29:57.729Z,2.96
2018-02-19T20:32:25.264Z,2.97
2018-02-19T20:34:52.844Z,2.92
2018-02-19T20:37:20.507Z,2.83
2018-02-19T20:39:48.020Z,2.71
2018-02-19T20:42:15.514Z,2.71
2018-02-19T20:44:43.100Z,2.65
2018-02-19T20:47:10.720Z,2.68
2018-02-19T20:49:38.386Z,2.72
2018-02-19T20:52:05.922Z,2.74
2018-02-19T20:54:33.627Z,2.71
2018-02-19T20:57:01.129Z,2.67
2018-02-19T20:59:28.667Z,2.62
2018-02-19T21:01:56.165Z,2.53
2018-02-19T21:04:23.672Z,2.47
2018-02-19T21:06:51.289Z,2.44
2018-02-19T21:09:18.927Z,2.38
2018-02-19T21:11:46.468Z,2.40
2018-02-19T21:14:13.958Z,2.42
2018-02-19T21:16:41.642Z,2.41
2018-02-19T21:19:09.273Z,2.39
2018-02-19T21:21:36.819Z,2.38
2018-02-19T21:24:04.479Z,2.36
2018-02-19T21:26:31.989Z,2.34
2018-02-19T21:28:59.489Z,2.31
2018-02-19T21:31:26.987Z,2.28
2018-02-19T21:33:54.709Z,2.27
2018-02-19T21:36:22.214Z,2.23
2018-02-19T21:38:49.707Z,2.18
2018-02-19T21:41:17.265Z,2.15
2018-02-19T21:43:44.870Z,2.15
2018-02-19T21:46:12.405Z,2.16
2018-02-19T21:48:40.073Z,2.14
2018-02-19T21:51:07.545Z,2.12
2018-02-19T21:53:35.044Z,2.12
2018-02-19T21:56:02.601Z,2.10
2018-02-19T21:58:30.103Z,2.07
2018-02-19T22:00:57.763Z,2.10
2018-02-19T22:03:25.274Z,2.06
2018-02-19T22:05:52.744Z,2.06
2018-02-19T22:08:20.249Z,2.07
2018-02-19T22:10:47.720Z,2.04
2018-02-19T22:13:15.211Z,2.00
2018-02-19T22:15:42.680Z,1.99
2018-02-19T22:18:10.172Z,1.93
2018-02-19T22:20:37.658Z,1.93
2018-02-19T22:23:05.203Z,1.86
2018-02-19T22:25:32.668Z,1.77
2018-02-19T22:28:00.645Z,1.64
2018-02-19T22:30:28.527Z,1.51
2018-02-19T22:32:56.049Z,1.47
2018-02-19T22:35:23.561Z,1.41
2018-02-19T22:37:51.016Z,1.31
2018-02-19T22:40:18.515Z,1.22
2018-02-19T22:42:46.013Z,1.13
2018-02-19T22:45:13.488Z,1.02
2018-02-19T22:47:40.975Z,0.91
2018-02-19T22:50:08.456Z,0.82
2018-02-19T22:52:35.969Z,0.77
2018-02-19T22:55:03.443Z,0.68
2018-02-19T22:57:30.931Z,0.62
2018-02-19T22:59:58.395Z,0.55
2018-02-19T23:02:25.880Z,0.52
2018-02-19T23:04:53.343Z,0.44
2018-02-19T23:07:20.824Z,0.41
2018-02-19T23:09:48.304Z,0.33
2018-02-19T23:12:15.792Z,0.16
2018-02-19T23:14:43.249Z,0.10
2018-02-19T23:17:10.752Z,0.02
2018-02-19T23:19:38.211Z,-0.12
2018-02-19T23:22:05.704Z,-0.21
2018-02-19T23:24:33.178Z,-0.23
2018-02-19T23:27:00.686Z,-0.31
2018-02-19T23:29:28.176Z,-0.37
2018-02-19T23:31:55.648Z,-0.46
2018-02-19T23:34:23.155Z,-0.47
2018-02-19T23:36:50.636Z,-0.55
2018-02-19T23:39:18.135Z,-0.58
2018-02-19T23:41:45.608Z,-0.60
2018-02-19T23:44:13.116Z,-0.58
2018-02-19T23:46:40.590Z,-0.64
2018-02-19T23:49:08.092Z,-0.65
2018-02-19T23:51:35.564Z,-0.69
2018-02-19T23:54:03.062Z,-0.69
2018-02-19T23:56:30.541Z,-0.73
2018-02-19T23:58:58.037Z,-0.76
